sensor_id;sensor_type;location;lat;lon;timestamp;P1;durP1;ratioP1;P2;durP2;ratioP2
54977;SDS011;40873;47.522;19.106;2023-04-04T06:45:34;3.75;;;1.50;;
54977;SDS011;40873;47.522;19.106;2023-04-04T06:48:01;3.00;;;1.23;;
54977;SDS011;40873;47.522;19.106;2023-04-04T06:50:29;5.82;;;2.15;;
54977;SDS011;40873;47.522;19.106;2023-04-04T06:52:59;2.88;;;1.23;;
54977;SDS011;40873;47.522;19.106;2023-04-04T06:55:32;2.55;;;1.20;;
54977;SDS011;40873;47.522;19.106;2023-04-04T06:57:59;3.50;;;1.70;;
54977;SDS011;40873;47.522;19.106;2023-04-04T07:00:26;2.72;;;1.48;;
54977;SDS011;40873;47.522;19.106;2023-04-04T07:02:56;3.83;;;2.80;;
54977;SDS011;40873;47.522;19.106;2023-04-04T07:05:27;4.45;;;1.67;;
54977;SDS011;40873;47.522;19.106;2023-04-04T07:07:54;4.93;;;1.83;;
54977;SDS011;40873;47.522;19.106;2023-04-04T07:10:22;3.40;;;1.75;;
54977;SDS011;40873;47.522;19.106;2023-04-04T07:12:50;4.75;;;2.38;;
54977;SDS011;40873;47.522;19.106;2023-04-04T07:15:17;4.40;;;1.55;;
54977;SDS011;40873;47.522;19.106;2023-04-04T07:17:45;3.28;;;1.70;;
54977;SDS011;40873;47.522;19.106;2023-04-04T07:20:12;3.45;;;1.83;;
54977;SDS011;40873;47.522;19.106;2023-04-04T07:22:39;3.97;;;2.20;;
54977;SDS011;40873;47.522;19.106;2023-04-04T07:25:08;3.40;;;1.63;;
54977;SDS011;40873;47.522;19.106;2023-04-04T07:27:35;4.32;;;1.92;;
54977;SDS011;40873;47.522;19.106;2023-04-04T07:30:02;4.47;;;1.70;;
54977;SDS011;40873;47.522;19.106;2023-04-04T07:32:30;8.45;;;2.58;;
54977;SDS011;40873;47.522;19.106;2023-04-04T07:34:57;3.38;;;1.48;;
54977;SDS011;40873;47.522;19.106;2023-04-04T07:37:24;3.55;;;1.95;;
54977;SDS011;40873;47.522;19.106;2023-04-04T07:39:54;3.13;;;1.73;;
54977;SDS011;40873;47.522;19.106;2023-04-04T07:42:21;7.32;;;1.90;;
54977;SDS011;40873;47.522;19.106;2023-04-04T07:44:48;2.65;;;1.63;;
54977;SDS011;40873;47.522;19.106;2023-04-04T07:47:16;7.25;;;2.35;;
54977;SDS011;40873;47.522;19.106;2023-04-04T07:49:44;5.07;;;1.98;;
54977;SDS011;40873;47.522;19.106;2023-04-04T07:52:11;15.07;;;1.70;;
54977;SDS011;40873;47.522;19.106;2023-04-04T07:54:38;3.55;;;1.52;;
54977;SDS011;40873;47.522;19.106;2023-04-04T07:57:06;3.65;;;1.80;;
54977;SDS011;40873;47.522;19.106;2023-04-04T07:59:35;3.53;;;1.77;;
54977;SDS011;40873;47.522;19.106;2023-04-04T08:02:03;3.30;;;1.75;;
54977;SDS011;40873;47.522;19.106;2023-04-04T08:04:30;3.25;;;1.83;;
54977;SDS011;40873;47.522;19.106;2023-04-04T08:06:57;3.22;;;1.83;;
54977;SDS011;40873;47.522;19.106;2023-04-04T08:09:24;2.72;;;1.50;;
54977;SDS011;40873;47.522;19.106;2023-04-04T08:11:51;3.72;;;1.63;;
54977;SDS011;40873;47.522;19.106;2023-04-04T08:14:18;2.95;;;1.75;;
54977;SDS011;40873;47.522;19.106;2023-04-04T08:16:45;2.40;;;1.38;;
54977;SDS011;40873;47.522;19.106;2023-04-04T08:19:12;3.42;;;1.60;;
54977;SDS011;40873;47.522;19.106;2023-04-04T08:21:39;4.57;;;1.73;;
54977;SDS011;40873;47.522;19.106;2023-04-04T08:24:06;3.55;;;1.40;;
54977;SDS011;40873;47.522;19.106;2023-04-04T08:26:33;2.80;;;1.50;;
54977;SDS011;40873;47.522;19.106;2023-04-04T08:29:00;2.63;;;1.20;;
54977;SDS011;40873;47.522;19.106;2023-04-04T08:31:27;4.68;;;1.50;;
54977;SDS011;40873;47.522;19.106;2023-04-04T08:33:55;3.67;;;1.63;;
54977;SDS011;40873;47.522;19.106;2023-04-04T08:36:22;2.70;;;1.70;;
54977;SDS011;40873;47.522;19.106;2023-04-04T08:38:49;2.80;;;1.55;;
54977;SDS011;40873;47.522;19.106;2023-04-04T08:41:16;5.55;;;1.75;;
54977;SDS011;40873;47.522;19.106;2023-04-04T08:43:44;4.05;;;2.05;;
54977;SDS011;40873;47.522;19.106;2023-04-04T08:46:22;3.72;;;1.88;;
54977;SDS011;40873;47.522;19.106;2023-04-04T08:48:51;3.30;;;1.70;;
54977;SDS011;40873;47.522;19.106;2023-04-04T08:51:19;3.30;;;1.63;;
54977;SDS011;40873;47.522;19.106;2023-04-04T08:53:47;4.70;;;2.03;;
54977;SDS011;40873;47.522;19.106;2023-04-04T08:56:15;3.25;;;1.73;;
54977;SDS011;40873;47.522;19.106;2023-04-04T08:58:42;4.82;;;1.77;;
54977;SDS011;40873;47.522;19.106;2023-04-04T09:01:09;5.15;;;1.73;;
54977;SDS011;40873;47.522;19.106;2023-04-04T09:03:36;4.22;;;1.95;;
54977;SDS011;40873;47.522;19.106;2023-04-04T09:06:04;4.25;;;1.48;;
54977;SDS011;40873;47.522;19.106;2023-04-04T09:08:31;3.38;;;1.33;;
54977;SDS011;40873;47.522;19.106;2023-04-04T09:10:58;3.78;;;1.50;;
54977;SDS011;40873;47.522;19.106;2023-04-04T09:13:28;6.40;;;1.75;;
54977;SDS011;40873;47.522;19.106;2023-04-04T09:15:55;4.68;;;1.65;;
54977;SDS011;40873;47.522;19.106;2023-04-04T09:18:24;4.60;;;1.73;;
54977;SDS011;40873;47.522;19.106;2023-04-04T09:20:51;4.10;;;1.98;;
54977;SDS011;40873;47.522;19.106;2023-04-04T09:23:19;4.00;;;1.65;;
54977;SDS011;40873;47.522;19.106;2023-04-04T09:25:51;2.95;;;1.77;;
54977;SDS011;40873;47.522;19.106;2023-04-04T09:28:22;6.80;;;2.25;;
54977;SDS011;40873;47.522;19.106;2023-04-04T09:30:50;5.20;;;2.75;;
54977;SDS011;40873;47.522;19.106;2023-04-04T09:33:19;3.88;;;1.75;;
54977;SDS011;40873;47.522;19.106;2023-04-04T09:35:51;3.17;;;1.77;;
54977;SDS011;40873;47.522;19.106;2023-04-04T09:38:35;8.45;;;1.75;;
54977;SDS011;40873;47.522;19.106;2023-04-04T09:41:07;6.40;;;1.75;;
54977;SDS011;40873;47.522;19.106;2023-04-04T09:43:38;7.95;;;2.30;;
54977;SDS011;40873;47.522;19.106;2023-04-04T09:46:05;3.40;;;1.23;;
54977;SDS011;40873;47.522;19.106;2023-04-04T09:48:33;2.22;;;1.13;;
54977;SDS011;40873;47.522;19.106;2023-04-04T09:51:03;2.80;;;1.48;;
54977;SDS011;40873;47.522;19.106;2023-04-04T09:53:35;2.92;;;1.40;;
54977;SDS011;40873;47.522;19.106;2023-04-04T09:56:04;2.83;;;1.38;;
54977;SDS011;40873;47.522;19.106;2023-04-04T09:58:32;3.50;;;1.48;;
54977;SDS011;40873;47.522;19.106;2023-04-04T10:01:06;3.20;;;1.73;;
54977;SDS011;40873;47.522;19.106;2023-04-04T10:03:35;3.42;;;1.13;;
54977;SDS011;40873;47.522;19.106;2023-04-04T10:06:05;3.45;;;1.58;;
54977;SDS011;40873;47.522;19.106;2023-04-04T10:08:33;2.65;;;1.50;;
54977;SDS011;40873;47.522;19.106;2023-04-04T10:11:03;23.10;;;3.10;;
54977;SDS011;40873;47.522;19.106;2023-04-04T10:13:34;12.57;;;1.90;;
54977;SDS011;40873;47.522;19.106;2023-04-04T10:16:02;4.57;;;1.80;;
54977;SDS011;40873;47.522;19.106;2023-04-04T10:18:30;8.93;;;1.80;;
54977;SDS011;40873;47.522;19.106;2023-04-04T10:21:02;5.07;;;1.85;;
54977;SDS011;40873;47.522;19.106;2023-04-04T10:23:41;3.40;;;0.93;;
54977;SDS011;40873;47.522;19.106;2023-04-04T10:26:11;2.28;;;1.05;;
54977;SDS011;40873;47.522;19.106;2023-04-04T10:28:39;3.10;;;1.35;;
54977;SDS011;40873;47.522;19.106;2023-04-04T10:31:14;2.47;;;1.27;;
54977;SDS011;40873;47.522;19.106;2023-04-04T10:34:11;4.15;;;1.33;;
54977;SDS011;40873;47.522;19.106;2023-04-04T10:36:50;8.88;;;1.45;;
54977;SDS011;40873;47.522;19.106;2023-04-04T10:39:23;2.97;;;1.38;;
54977;SDS011;40873;47.522;19.106;2023-04-04T10:41:53;1.33;;;0.95;;
54977;SDS011;40873;47.522;19.106;2023-04-04T10:47:12;3.08;;;1.40;;
54977;SDS011;40873;47.522;19.106;2023-04-04T10:49:51;4.10;;;1.58;;
54977;SDS011;40873;47.522;19.106;2023-04-04T10:52:19;3.33;;;1.63;;
54977;SDS011;40873;47.522;19.106;2023-04-04T10:54:49;2.10;;;1.38;;
54977;SDS011;40873;47.522;19.106;2023-04-04T10:57:23;3.40;;;1.63;;
54977;SDS011;40873;47.522;19.106;2023-04-04T11:00:13;4.78;;;1.70;;
54977;SDS011;40873;47.522;19.106;2023-04-04T11:02:47;2.30;;;1.10;;
54977;SDS011;40873;47.522;19.106;2023-04-04T11:08:21;3.47;;;1.38;;
54977;SDS011;40873;47.522;19.106;2023-04-04T11:10:50;4.20;;;1.63;;
54977;SDS011;40873;47.522;19.106;2023-04-04T11:13:19;3.47;;;1.35;;
54977;SDS011;40873;47.522;19.106;2023-04-04T11:15:58;3.60;;;1.55;;
54977;SDS011;40873;47.522;19.106;2023-04-04T11:21:02;5.97;;;2.17;;
54977;SDS011;40873;47.522;19.106;2023-04-04T11:23:38;3.25;;;1.42;;
54977;SDS011;40873;47.522;19.106;2023-04-04T11:28:57;3.83;;;1.73;;
54977;SDS011;40873;47.522;19.106;2023-04-04T11:31:34;4.53;;;1.60;;
54977;SDS011;40873;47.522;19.106;2023-04-04T11:34:12;2.95;;;1.42;;
54977;SDS011;40873;47.522;19.106;2023-04-04T11:44:14;4.65;;;1.50;;
54977;SDS011;40873;47.522;19.106;2023-04-04T11:46:43;4.43;;;1.35;;
54977;SDS011;40873;47.522;19.106;2023-04-04T11:49:10;2.35;;;1.40;;
54977;SDS011;40873;47.522;19.106;2023-04-04T11:51:38;3.03;;;1.63;;
54977;SDS011;40873;47.522;19.106;2023-04-04T11:54:13;2.05;;;1.02;;
54977;SDS011;40873;47.522;19.106;2023-04-04T11:56:41;1.65;;;1.08;;
54977;SDS011;40873;47.522;19.106;2023-04-04T11:59:12;4.63;;;1.45;;
54977;SDS011;40873;47.522;19.106;2023-04-04T12:01:44;4.30;;;1.40;;
54977;SDS011;40873;47.522;19.106;2023-04-04T12:04:11;3.45;;;1.48;;
54977;SDS011;40873;47.522;19.106;2023-04-04T12:06:42;3.58;;;1.67;;
54977;SDS011;40873;47.522;19.106;2023-04-04T12:09:10;2.40;;;1.42;;
54977;SDS011;40873;47.522;19.106;2023-04-04T12:11:38;2.78;;;1.48;;
54977;SDS011;40873;47.522;19.106;2023-04-04T12:14:05;3.28;;;1.50;;
54977;SDS011;40873;47.522;19.106;2023-04-04T12:16:44;3.72;;;1.60;;
54977;SDS011;40873;47.522;19.106;2023-04-04T12:19:15;4.82;;;1.98;;
54977;SDS011;40873;47.522;19.106;2023-04-04T12:21:44;5.03;;;2.00;;
54977;SDS011;40873;47.522;19.106;2023-04-04T12:24:12;3.80;;;1.90;;
54977;SDS011;40873;47.522;19.106;2023-04-04T12:26:43;4.32;;;1.63;;
54977;SDS011;40873;47.522;19.106;2023-04-04T12:29:13;5.32;;;1.90;;
54977;SDS011;40873;47.522;19.106;2023-04-04T12:31:43;4.32;;;1.70;;
54977;SDS011;40873;47.522;19.106;2023-04-04T12:34:15;4.07;;;1.98;;
54977;SDS011;40873;47.522;19.106;2023-04-04T12:36:47;6.85;;;1.33;;
54977;SDS011;40873;47.522;19.106;2023-04-04T12:39:17;3.75;;;1.50;;
54977;SDS011;40873;47.522;19.106;2023-04-04T12:41:52;5.88;;;1.60;;
54977;SDS011;40873;47.522;19.106;2023-04-04T12:44:29;4.65;;;1.67;;
54977;SDS011;40873;47.522;19.106;2023-04-04T12:47:07;4.90;;;1.70;;
54977;SDS011;40873;47.522;19.106;2023-04-04T12:49:45;5.18;;;1.63;;
54977;SDS011;40873;47.522;19.106;2023-04-04T12:52:20;3.17;;;1.40;;
54977;SDS011;40873;47.522;19.106;2023-04-04T12:54:57;5.10;;;2.10;;
54977;SDS011;40873;47.522;19.106;2023-04-04T12:57:34;5.57;;;1.55;;
54977;SDS011;40873;47.522;19.106;2023-04-04T13:00:02;2.40;;;1.40;;
54977;SDS011;40873;47.522;19.106;2023-04-04T13:02:33;3.38;;;1.40;;
54977;SDS011;40873;47.522;19.106;2023-04-04T13:05:02;2.65;;;1.30;;
54977;SDS011;40873;47.522;19.106;2023-04-04T13:07:34;3.85;;;1.77;;
54977;SDS011;40873;47.522;19.106;2023-04-04T13:10:09;3.03;;;1.73;;
54977;SDS011;40873;47.522;19.106;2023-04-04T13:12:52;3.13;;;1.60;;
54977;SDS011;40873;47.522;19.106;2023-04-04T13:15:22;4.55;;;1.80;;
54977;SDS011;40873;47.522;19.106;2023-04-04T13:17:50;2.90;;;1.30;;
54977;SDS011;40873;47.522;19.106;2023-04-04T13:20:18;2.67;;;1.30;;
54977;SDS011;40873;47.522;19.106;2023-04-04T13:22:47;1.80;;;1.35;;
54977;SDS011;40873;47.522;19.106;2023-04-04T13:25:14;3.40;;;1.30;;
54977;SDS011;40873;47.522;19.106;2023-04-04T13:27:41;4.38;;;1.30;;
54977;SDS011;40873;47.522;19.106;2023-04-04T13:30:08;2.60;;;1.58;;
54977;SDS011;40873;47.522;19.106;2023-04-04T13:32:36;4.28;;;1.58;;
54977;SDS011;40873;47.522;19.106;2023-04-04T13:35:04;3.42;;;1.92;;
54977;SDS011;40873;47.522;19.106;2023-04-04T13:37:31;3.38;;;1.55;;
54977;SDS011;40873;47.522;19.106;2023-04-04T13:39:59;4.40;;;1.60;;
54977;SDS011;40873;47.522;19.106;2023-04-04T13:42:25;3.03;;;1.58;;
54977;SDS011;40873;47.522;19.106;2023-04-04T13:44:56;2.25;;;1.48;;
54977;SDS011;40873;47.522;19.106;2023-04-04T13:47:23;2.72;;;1.30;;
54977;SDS011;40873;47.522;19.106;2023-04-04T13:49:53;3.78;;;1.50;;
54977;SDS011;40873;47.522;19.106;2023-04-04T13:52:20;3.45;;;1.70;;
54977;SDS011;40873;47.522;19.106;2023-04-04T13:54:48;3.13;;;1.40;;
54977;SDS011;40873;47.522;19.106;2023-04-04T13:57:15;4.60;;;2.03;;
54977;SDS011;40873;47.522;19.106;2023-04-04T13:59:42;3.58;;;1.70;;
54977;SDS011;40873;47.522;19.106;2023-04-04T14:02:09;3.30;;;1.60;;
54977;SDS011;40873;47.522;19.106;2023-04-04T14:04:37;5.47;;;1.85;;
54977;SDS011;40873;47.522;19.106;2023-04-04T14:07:04;3.00;;;1.92;;
54977;SDS011;40873;47.522;19.106;2023-04-04T14:09:31;3.10;;;1.58;;
54977;SDS011;40873;47.522;19.106;2023-04-04T14:11:58;3.17;;;2.00;;
54977;SDS011;40873;47.522;19.106;2023-04-04T14:14:25;3.08;;;1.42;;
54977;SDS011;40873;47.522;19.106;2023-04-04T14:16:52;2.92;;;1.63;;
54977;SDS011;40873;47.522;19.106;2023-04-04T14:19:19;2.65;;;1.52;;
54977;SDS011;40873;47.522;19.106;2023-04-04T14:21:47;3.42;;;1.60;;
54977;SDS011;40873;47.522;19.106;2023-04-04T14:24:14;2.92;;;1.33;;
54977;SDS011;40873;47.522;19.106;2023-04-04T14:26:41;3.92;;;1.77;;
54977;SDS011;40873;47.522;19.106;2023-04-04T14:29:08;4.53;;;1.92;;
54977;SDS011;40873;47.522;19.106;2023-04-04T14:31:35;3.17;;;1.92;;
54977;SDS011;40873;47.522;19.106;2023-04-04T14:34:02;4.15;;;1.83;;
54977;SDS011;40873;47.522;19.106;2023-04-04T14:36:29;3.83;;;1.52;;
54977;SDS011;40873;47.522;19.106;2023-04-04T14:38:57;3.55;;;1.92;;
54977;SDS011;40873;47.522;19.106;2023-04-04T14:41:24;3.60;;;1.70;;
54977;SDS011;40873;47.522;19.106;2023-04-04T14:43:51;5.10;;;1.88;;
54977;SDS011;40873;47.522;19.106;2023-04-04T14:46:18;3.67;;;1.77;;
54977;SDS011;40873;47.522;19.106;2023-04-04T14:48:45;5.00;;;2.42;;
54977;SDS011;40873;47.522;19.106;2023-04-04T14:51:13;3.67;;;2.00;;
54977;SDS011;40873;47.522;19.106;2023-04-04T14:53:40;3.72;;;1.92;;
54977;SDS011;40873;47.522;19.106;2023-04-04T14:56:07;3.05;;;1.63;;
54977;SDS011;40873;47.522;19.106;2023-04-04T14:58:34;4.82;;;1.73;;
54977;SDS011;40873;47.522;19.106;2023-04-04T15:01:01;3.33;;;1.67;;
54977;SDS011;40873;47.522;19.106;2023-04-04T15:03:29;6.10;;;2.10;;
54977;SDS011;40873;47.522;19.106;2023-04-04T15:05:57;6.70;;;2.00;;
54977;SDS011;40873;47.522;19.106;2023-04-04T15:08:24;7.47;;;1.88;;
54977;SDS011;40873;47.522;19.106;2023-04-04T15:10:51;3.30;;;1.60;;
54977;SDS011;40873;47.522;19.106;2023-04-04T15:13:18;2.97;;;1.70;;
54977;SDS011;40873;47.522;19.106;2023-04-04T15:15:44;3.15;;;1.77;;
54977;SDS011;40873;47.522;19.106;2023-04-04T15:18:12;2.45;;;1.40;;
54977;SDS011;40873;47.522;19.106;2023-04-04T15:20:39;4.82;;;1.70;;
54977;SDS011;40873;47.522;19.106;2023-04-04T15:23:06;3.50;;;1.75;;
54977;SDS011;40873;47.522;19.106;2023-04-04T15:25:33;3.78;;;1.88;;
54977;SDS011;40873;47.522;19.106;2023-04-04T15:28:00;3.83;;;1.90;;
54977;SDS011;40873;47.522;19.106;2023-04-04T15:30:28;4.20;;;1.65;;
54977;SDS011;40873;47.522;19.106;2023-04-04T15:32:55;5.22;;;2.65;;
54977;SDS011;40873;47.522;19.106;2023-04-04T15:35:22;3.53;;;1.55;;
54977;SDS011;40873;47.522;19.106;2023-04-04T15:37:50;4.20;;;1.73;;
54977;SDS011;40873;47.522;19.106;2023-04-04T15:40:17;3.17;;;1.85;;
54977;SDS011;40873;47.522;19.106;2023-04-04T15:42:46;3.97;;;2.00;;
54977;SDS011;40873;47.522;19.106;2023-04-04T15:45:13;3.17;;;1.88;;
54977;SDS011;40873;47.522;19.106;2023-04-04T15:47:41;4.13;;;1.70;;
54977;SDS011;40873;47.522;19.106;2023-04-04T15:50:08;4.80;;;2.20;;
54977;SDS011;40873;47.522;19.106;2023-04-04T15:52:36;3.20;;;1.80;;
54977;SDS011;40873;47.522;19.106;2023-04-04T15:55:03;5.32;;;1.90;;
54977;SDS011;40873;47.522;19.106;2023-04-04T15:57:37;4.32;;;2.15;;
54977;SDS011;40873;47.522;19.106;2023-04-04T16:00:04;4.03;;;2.17;;
54977;SDS011;40873;47.522;19.106;2023-04-04T16:02:32;4.22;;;2.08;;
54977;SDS011;40873;47.522;19.106;2023-04-04T16:04:59;3.80;;;1.90;;
54977;SDS011;40873;47.522;19.106;2023-04-04T16:07:26;3.10;;;1.70;;
54977;SDS011;40873;47.522;19.106;2023-04-04T16:09:53;5.05;;;2.20;;
54977;SDS011;40873;47.522;19.106;2023-04-04T16:12:20;4.40;;;2.33;;
54977;SDS011;40873;47.522;19.106;2023-04-04T16:14:47;5.38;;;1.60;;
54977;SDS011;40873;47.522;19.106;2023-04-04T16:17:14;5.45;;;2.22;;
54977;SDS011;40873;47.522;19.106;2023-04-04T16:19:42;5.72;;;2.38;;
54977;SDS011;40873;47.522;19.106;2023-04-04T16:22:09;3.50;;;2.22;;
54977;SDS011;40873;47.522;19.106;2023-04-04T16:24:36;4.93;;;2.22;;
54977;SDS011;40873;47.522;19.106;2023-04-04T16:27:03;4.10;;;2.20;;
54977;SDS011;40873;47.522;19.106;2023-04-04T16:29:30;4.45;;;1.80;;
54977;SDS011;40873;47.522;19.106;2023-04-04T16:31:57;5.90;;;2.40;;
54977;SDS011;40873;47.522;19.106;2023-04-04T16:34:24;4.50;;;2.10;;
54977;SDS011;40873;47.522;19.106;2023-04-04T16:36:51;3.90;;;2.10;;
54977;SDS011;40873;47.522;19.106;2023-04-04T16:39:18;6.53;;;3.15;;
54977;SDS011;40873;47.522;19.106;2023-04-04T16:41:45;4.55;;;2.20;;
54977;SDS011;40873;47.522;19.106;2023-04-04T16:44:12;4.38;;;2.08;;
54977;SDS011;40873;47.522;19.106;2023-04-04T16:46:41;4.40;;;2.55;;
54977;SDS011;40873;47.522;19.106;2023-04-04T16:49:08;3.55;;;1.83;;
54977;SDS011;40873;47.522;19.106;2023-04-04T16:51:35;5.90;;;2.20;;
54977;SDS011;40873;47.522;19.106;2023-04-04T16:54:02;5.22;;;2.47;;
54977;SDS011;40873;47.522;19.106;2023-04-04T16:56:29;4.75;;;2.42;;
54977;SDS011;40873;47.522;19.106;2023-04-04T16:58:57;6.82;;;3.35;;
54977;SDS011;40873;47.522;19.106;2023-04-04T17:01:24;5.05;;;2.53;;
54977;SDS011;40873;47.522;19.106;2023-04-04T17:03:52;3.92;;;2.47;;
54977;SDS011;40873;47.522;19.106;2023-04-04T17:06:19;3.75;;;2.38;;
54977;SDS011;40873;47.522;19.106;2023-04-04T17:08:46;5.47;;;2.97;;
54977;SDS011;40873;47.522;19.106;2023-04-04T17:11:15;5.07;;;2.60;;
54977;SDS011;40873;47.522;19.106;2023-04-04T17:13:42;4.60;;;2.33;;
54977;SDS011;40873;47.522;19.106;2023-04-04T17:16:09;7.72;;;2.90;;
54977;SDS011;40873;47.522;19.106;2023-04-04T17:18:36;6.75;;;2.85;;
54977;SDS011;40873;47.522;19.106;2023-04-04T17:21:03;4.45;;;2.60;;
54977;SDS011;40873;47.522;19.106;2023-04-04T17:23:30;4.53;;;2.33;;
54977;SDS011;40873;47.522;19.106;2023-04-04T17:25:57;3.40;;;1.85;;
54977;SDS011;40873;47.522;19.106;2023-04-04T17:28:24;3.78;;;2.42;;
54977;SDS011;40873;47.522;19.106;2023-04-04T17:30:51;5.57;;;2.15;;
54977;SDS011;40873;47.522;19.106;2023-04-04T17:33:18;6.10;;;2.38;;
54977;SDS011;40873;47.522;19.106;2023-04-04T17:35:46;8.63;;;2.90;;
54977;SDS011;40873;47.522;19.106;2023-04-04T17:38:13;5.85;;;2.25;;
54977;SDS011;40873;47.522;19.106;2023-04-04T17:40:41;5.88;;;2.33;;
54977;SDS011;40873;47.522;19.106;2023-04-04T17:43:08;6.72;;;2.67;;
54977;SDS011;40873;47.522;19.106;2023-04-04T17:45:35;4.68;;;2.55;;
54977;SDS011;40873;47.522;19.106;2023-04-04T17:48:01;6.57;;;2.65;;
54977;SDS011;40873;47.522;19.106;2023-04-04T17:50:29;11.70;;;3.28;;
54977;SDS011;40873;47.522;19.106;2023-04-04T17:52:56;5.53;;;3.17;;
54977;SDS011;40873;47.522;19.106;2023-04-04T17:55:23;6.43;;;2.83;;
54977;SDS011;40873;47.522;19.106;2023-04-04T17:57:51;6.95;;;3.60;;
54977;SDS011;40873;47.522;19.106;2023-04-04T18:00:19;4.32;;;2.38;;
54977;SDS011;40873;47.522;19.106;2023-04-04T18:02:47;3.90;;;2.72;;
54977;SDS011;40873;47.522;19.106;2023-04-04T18:05:14;5.65;;;2.92;;
54977;SDS011;40873;47.522;19.106;2023-04-04T18:07:42;6.53;;;2.65;;
54977;SDS011;40873;47.522;19.106;2023-04-04T18:10:09;8.02;;;3.60;;
54977;SDS011;40873;47.522;19.106;2023-04-04T18:12:36;5.50;;;2.05;;
54977;SDS011;40873;47.522;19.106;2023-04-04T18:15:05;6.05;;;2.88;;
54977;SDS011;40873;47.522;19.106;2023-04-04T18:17:32;7.05;;;3.17;;
54977;SDS011;40873;47.522;19.106;2023-04-04T18:19:59;6.13;;;2.92;;
54977;SDS011;40873;47.522;19.106;2023-04-04T18:22:29;7.05;;;2.58;;
54977;SDS011;40873;47.522;19.106;2023-04-04T18:24:56;5.63;;;2.75;;
54977;SDS011;40873;47.522;19.106;2023-04-04T18:27:23;7.57;;;3.63;;
54977;SDS011;40873;47.522;19.106;2023-04-04T18:29:51;11.13;;;4.10;;
54977;SDS011;40873;47.522;19.106;2023-04-04T18:32:18;8.00;;;3.25;;
54977;SDS011;40873;47.522;19.106;2023-04-04T18:34:47;7.57;;;3.38;;
54977;SDS011;40873;47.522;19.106;2023-04-04T18:37:13;5.13;;;2.60;;
54977;SDS011;40873;47.522;19.106;2023-04-04T18:39:41;9.30;;;3.35;;
54977;SDS011;40873;47.522;19.106;2023-04-04T18:42:07;6.88;;;2.78;;
54977;SDS011;40873;47.522;19.106;2023-04-04T18:44:36;5.13;;;2.92;;
54977;SDS011;40873;47.522;19.106;2023-04-04T18:47:03;7.78;;;3.15;;
54977;SDS011;40873;47.522;19.106;2023-04-04T18:49:31;7.38;;;2.40;;
54977;SDS011;40873;47.522;19.106;2023-04-04T18:51:58;5.75;;;2.85;;
54977;SDS011;40873;47.522;19.106;2023-04-04T18:54:26;6.53;;;2.75;;
54977;SDS011;40873;47.522;19.106;2023-04-04T18:56:53;7.05;;;2.85;;
54977;SDS011;40873;47.522;19.106;2023-04-04T18:59:23;5.57;;;2.92;;
54977;SDS011;40873;47.522;19.106;2023-04-04T19:01:50;6.65;;;2.95;;
54977;SDS011;40873;47.522;19.106;2023-04-04T19:04:22;5.97;;;2.35;;
54977;SDS011;40873;47.522;19.106;2023-04-04T19:06:50;5.82;;;2.55;;
54977;SDS011;40873;47.522;19.106;2023-04-04T19:09:19;6.22;;;2.70;;
54977;SDS011;40873;47.522;19.106;2023-04-04T19:11:47;7.13;;;3.20;;
54977;SDS011;40873;47.522;19.106;2023-04-04T19:14:14;5.75;;;2.55;;
54977;SDS011;40873;47.522;19.106;2023-04-04T19:16:41;6.80;;;2.55;;
54977;SDS011;40873;47.522;19.106;2023-04-04T19:19:08;7.70;;;2.60;;
54977;SDS011;40873;47.522;19.106;2023-04-04T19:21:35;5.25;;;2.50;;
54977;SDS011;40873;47.522;19.106;2023-04-04T19:24:02;4.90;;;2.42;;
54977;SDS011;40873;47.522;19.106;2023-04-04T19:26:29;7.88;;;2.50;;
54977;SDS011;40873;47.522;19.106;2023-04-04T19:28:57;5.05;;;2.53;;
54977;SDS011;40873;47.522;19.106;2023-04-04T19:31:25;3.35;;;2.47;;
54977;SDS011;40873;47.522;19.106;2023-04-04T19:33:56;4.75;;;2.35;;
54977;SDS011;40873;47.522;19.106;2023-04-04T19:36:23;4.05;;;2.35;;
54977;SDS011;40873;47.522;19.106;2023-04-04T19:38:53;5.88;;;2.65;;
54977;SDS011;40873;47.522;19.106;2023-04-04T19:44:04;6.13;;;2.67;;
54977;SDS011;40873;47.522;19.106;2023-04-04T19:46:33;7.45;;;2.70;;
54977;SDS011;40873;47.522;19.106;2023-04-04T19:49:01;5.07;;;2.47;;
54977;SDS011;40873;47.522;19.106;2023-04-04T19:51:56;7.55;;;2.80;;
54977;SDS011;40873;47.522;19.106;2023-04-04T19:54:28;5.63;;;3.03;;
54977;SDS011;40873;47.522;19.106;2023-04-04T19:57:08;6.45;;;2.42;;
54977;SDS011;40873;47.522;19.106;2023-04-04T20:04:59;5.40;;;3.00;;
54977;SDS011;40873;47.522;19.106;2023-04-04T20:07:27;7.18;;;2.90;;
54977;SDS011;40873;47.522;19.106;2023-04-04T20:09:54;6.13;;;2.97;;
54977;SDS011;40873;47.522;19.106;2023-04-04T20:12:22;5.30;;;3.10;;
54977;SDS011;40873;47.522;19.106;2023-04-04T20:14:56;6.43;;;2.50;;
54977;SDS011;40873;47.522;19.106;2023-04-04T20:17:24;6.28;;;2.55;;
54977;SDS011;40873;47.522;19.106;2023-04-04T20:19:54;6.97;;;3.35;;
54977;SDS011;40873;47.522;19.106;2023-04-04T20:22:25;5.53;;;2.72;;
54977;SDS011;40873;47.522;19.106;2023-04-04T20:24:54;5.30;;;2.83;;
54977;SDS011;40873;47.522;19.106;2023-04-04T20:27:24;5.85;;;2.97;;
54977;SDS011;40873;47.522;19.106;2023-04-04T20:29:53;6.72;;;2.88;;
54977;SDS011;40873;47.522;19.106;2023-04-04T20:32:20;9.25;;;3.35;;
54977;SDS011;40873;47.522;19.106;2023-04-04T20:34:47;6.03;;;3.55;;
54977;SDS011;40873;47.522;19.106;2023-04-04T20:37:17;7.00;;;3.05;;
54977;SDS011;40873;47.522;19.106;2023-04-04T20:44:51;6.53;;;3.28;;
54977;SDS011;40873;47.522;19.106;2023-04-04T20:49:59;5.95;;;2.90;;
54977;SDS011;40873;47.522;19.106;2023-04-04T20:52:26;6.88;;;2.70;;
54977;SDS011;40873;47.522;19.106;2023-04-04T20:54:53;7.25;;;3.00;;
54977;SDS011;40873;47.522;19.106;2023-04-04T20:57:22;4.90;;;2.47;;
54977;SDS011;40873;47.522;19.106;2023-04-04T20:59:50;8.35;;;2.72;;
54977;SDS011;40873;47.522;19.106;2023-04-04T21:02:17;5.45;;;3.03;;
54977;SDS011;40873;47.522;19.106;2023-04-04T21:04:49;9.00;;;3.28;;
54977;SDS011;40873;47.522;19.106;2023-04-04T21:10:23;4.97;;;2.53;;
54977;SDS011;40873;47.522;19.106;2023-04-04T21:13:13;5.70;;;2.70;;
54977;SDS011;40873;47.522;19.106;2023-04-04T21:15:41;4.43;;;2.45;;
54977;SDS011;40873;47.522;19.106;2023-04-04T21:18:08;6.53;;;3.15;;
54977;SDS011;40873;47.522;19.106;2023-04-04T21:25:56;5.78;;;2.88;;
54977;SDS011;40873;47.522;19.106;2023-04-04T21:28:29;4.47;;;2.20;;
54977;SDS011;40873;47.522;19.106;2023-04-04T21:30:59;7.10;;;2.72;;
54977;SDS011;40873;47.522;19.106;2023-04-04T21:33:27;6.28;;;2.60;;
54977;SDS011;40873;47.522;19.106;2023-04-04T21:35:57;6.68;;;2.42;;
54977;SDS011;40873;47.522;19.106;2023-04-04T21:41:07;8.63;;;3.25;;
54977;SDS011;40873;47.522;19.106;2023-04-04T21:43:36;5.45;;;2.28;;
54977;SDS011;40873;47.522;19.106;2023-04-04T21:46:03;6.35;;;2.70;;
54977;SDS011;40873;47.522;19.106;2023-04-04T21:48:30;7.70;;;2.95;;
54977;SDS011;40873;47.522;19.106;2023-04-04T21:50:57;6.50;;;3.22;;
54977;SDS011;40873;47.522;19.106;2023-04-04T21:53:24;5.28;;;2.50;;
54977;SDS011;40873;47.522;19.106;2023-04-04T21:55:51;6.43;;;3.53;;
54977;SDS011;40873;47.522;19.106;2023-04-04T21:58:18;7.00;;;2.90;;
54977;SDS011;40873;47.522;19.106;2023-04-04T22:00:45;6.10;;;3.67;;
54977;SDS011;40873;47.522;19.106;2023-04-04T22:03:12;13.55;;;6.20;;
54977;SDS011;40873;47.522;19.106;2023-04-04T22:05:40;13.63;;;6.32;;
54977;SDS011;40873;47.522;19.106;2023-04-04T22:08:07;11.02;;;5.57;;
54977;SDS011;40873;47.522;19.106;2023-04-04T22:10:35;8.38;;;4.35;;
54977;SDS011;40873;47.522;19.106;2023-04-04T22:13:11;8.25;;;2.88;;